sensor_id;sensor_type;location;lat;lon;timestamp;temperature;humidity
31455;DHT22;18084;53.028;8.834;2024-02-26T00:00:08;2.30;87.30
31455;DHT22;18084;53.028;8.834;2024-02-26T00:02:37;2.40;87.90
31455;DHT22;18084;53.028;8.834;2024-02-26T00:05:07;2.40;87.90
31455;DHT22;18084;53.028;8.834;2024-02-26T00:07:33;2.40;88.00
31455;DHT22;18084;53.028;8.834;2024-02-26T00:09:58;2.50;88.10
31455;DHT22;18084;53.028;8.834;2024-02-26T00:12:24;2.60;88.30
31455;DHT22;18084;53.028;8.834;2024-02-26T00:14:49;2.50;88.10
31455;DHT22;18084;53.028;8.834;2024-02-26T00:17:15;2.60;88.20
31455;DHT22;18084;53.028;8.834;2024-02-26T00:19:41;2.50;87.90
31455;DHT22;18084;53.028;8.834;2024-02-26T00:22:07;2.40;87.90
31455;DHT22;18084;53.028;8.834;2024-02-26T00:24:32;2.40;87.90
31455;DHT22;18084;53.028;8.834;2024-02-26T00:26:59;2.40;88.00
31455;DHT22;18084;53.028;8.834;2024-02-26T00:29:24;2.40;88.10
31455;DHT22;18084;53.028;8.834;2024-02-26T00:31:51;2.40;88.10
31455;DHT22;18084;53.028;8.834;2024-02-26T00:34:16;2.30;88.00
31455;DHT22;18084;53.028;8.834;2024-02-26T00:36:43;2.30;88.00
31455;DHT22;18084;53.028;8.834;2024-02-26T00:39:08;2.30;88.10
31455;DHT22;18084;53.028;8.834;2024-02-26T00:41:38;2.30;88.20
31455;DHT22;18084;53.028;8.834;2024-02-26T00:44:04;2.30;88.20
31455;DHT22;18084;53.028;8.834;2024-02-26T00:46:30;2.20;88.00
31455;DHT22;18084;53.028;8.834;2024-02-26T00:48:55;2.30;88.20
31455;DHT22;18084;53.028;8.834;2024-02-26T00:51:21;2.30;88.40
31455;DHT22;18084;53.028;8.834;2024-02-26T00:53:46;2.30;88.30
31455;DHT22;18084;53.028;8.834;2024-02-26T00:56:12;2.20;88.20
31455;DHT22;18084;53.028;8.834;2024-02-26T00:58:40;2.20;88.20
31455;DHT22;18084;53.028;8.834;2024-02-26T01:01:05;2.10;88.00
31455;DHT22;18084;53.028;8.834;2024-02-26T01:03:31;2.10;87.80
31455;DHT22;18084;53.028;8.834;2024-02-26T01:05:56;2.00;87.90
31455;DHT22;18084;53.028;8.834;2024-02-26T01:08:24;2.00;87.80
31455;DHT22;18084;53.028;8.834;2024-02-26T01:10:50;1.90;87.80
31455;DHT22;18084;53.028;8.834;2024-02-26T01:13:15;2.00;88.10
31455;DHT22;18084;53.028;8.834;2024-02-26T01:15:41;2.00;88.20
31455;DHT22;18084;53.028;8.834;2024-02-26T01:18:06;1.90;88.20
31455;DHT22;18084;53.028;8.834;2024-02-26T01:20:32;1.90;88.30
31455;DHT22;18084;53.028;8.834;2024-02-26T01:22:58;1.80;88.20
31455;DHT22;18084;53.028;8.834;2024-02-26T01:25:23;1.80;88.20
31455;DHT22;18084;53.028;8.834;2024-02-26T01:27:49;1.80;88.20
31455;DHT22;18084;53.028;8.834;2024-02-26T01:30:15;1.70;88.20
31455;DHT22;18084;53.028;8.834;2024-02-26T01:32:42;1.80;88.40
31455;DHT22;18084;53.028;8.834;2024-02-26T01:35:08;1.80;88.50
31455;DHT22;18084;53.028;8.834;2024-02-26T01:37:36;1.90;88.60
31455;DHT22;18084;53.028;8.834;2024-02-26T01:40:02;1.90;88.70
31455;DHT22;18084;53.028;8.834;2024-02-26T01:42:29;1.90;88.70
31455;DHT22;18084;53.028;8.834;2024-02-26T01:44:56;1.90;88.70
31455;DHT22;18084;53.028;8.834;2024-02-26T01:47:22;1.90;88.60
31455;DHT22;18084;53.028;8.834;2024-02-26T01:49:48;1.90;88.80
31455;DHT22;18084;53.028;8.834;2024-02-26T01:52:14;2.00;88.70
31455;DHT22;18084;53.028;8.834;2024-02-26T01:54:40;1.90;88.70
31455;DHT22;18084;53.028;8.834;2024-02-26T01:57:06;1.90;88.60
31455;DHT22;18084;53.028;8.834;2024-02-26T01:59:34;1.90;88.70
31455;DHT22;18084;53.028;8.834;2024-02-26T02:02:01;1.90;88.80
31455;DHT22;18084;53.028;8.834;2024-02-26T02:04:28;1.90;88.80
31455;DHT22;18084;53.028;8.834;2024-02-26T02:06:54;1.90;89.00
31455;DHT22;18084;53.028;8.834;2024-02-26T02:09:20;2.00;88.90
31455;DHT22;18084;53.028;8.834;2024-02-26T02:11:48;1.90;88.90
31455;DHT22;18084;53.028;8.834;2024-02-26T02:14:14;1.90;88.80
31455;DHT22;18084;53.028;8.834;2024-02-26T02:16:40;1.90;88.80
31455;DHT22;18084;53.028;8.834;2024-02-26T02:19:05;1.90;88.90
31455;DHT22;18084;53.028;8.834;2024-02-26T02:21:31;1.90;88.80
31455;DHT22;18084;53.028;8.834;2024-02-26T02:23:56;1.90;88.90
31455;DHT22;18084;53.028;8.834;2024-02-26T02:26:22;1.90;88.80
31455;DHT22;18084;53.028;8.834;2024-02-26T02:28:48;1.90;88.80
31455;DHT22;18084;53.028;8.834;2024-02-26T02:31:14;1.90;88.80
31455;DHT22;18084;53.028;8.834;2024-02-26T02:33:40;1.80;88.60
31455;DHT22;18084;53.028;8.834;2024-02-26T02:36:09;1.80;88.60
31455;DHT22;18084;53.028;8.834;2024-02-26T02:38:37;1.70;88.30
31455;DHT22;18084;53.028;8.834;2024-02-26T02:41:03;1.70;88.30
31455;DHT22;18084;53.028;8.834;2024-02-26T02:43:29;1.60;88.50
31455;DHT22;18084;53.028;8.834;2024-02-26T02:45:55;1.70;88.70
31455;DHT22;18084;53.028;8.834;2024-02-26T02:48:20;1.70;88.80
31455;DHT22;18084;53.028;8.834;2024-02-26T02:50:46;1.70;89.00
31455;DHT22;18084;53.028;8.834;2024-02-26T02:53:12;1.60;88.80
31455;DHT22;18084;53.028;8.834;2024-02-26T02:55:38;1.60;88.60
31455;DHT22;18084;53.028;8.834;2024-02-26T02:58:03;1.50;88.20
31455;DHT22;18084;53.028;8.834;2024-02-26T03:00:30;1.40;88.30
31455;DHT22;18084;53.028;8.834;2024-02-26T03:02:56;1.40;88.40
31455;DHT22;18084;53.028;8.834;2024-02-26T03:05:21;1.40;88.60
31455;DHT22;18084;53.028;8.834;2024-02-26T03:07:47;1.40;88.60
31455;DHT22;18084;53.028;8.834;2024-02-26T03:10:12;1.40;88.60
31455;DHT22;18084;53.028;8.834;2024-02-26T03:12:39;1.40;88.70
31455;DHT22;18084;53.028;8.834;2024-02-26T03:15:04;1.40;88.70
31455;DHT22;18084;53.028;8.834;2024-02-26T03:17:30;1.40;88.70
31455;DHT22;18084;53.028;8.834;2024-02-26T03:19:55;1.50;88.80
31455;DHT22;18084;53.028;8.834;2024-02-26T03:22:21;1.40;88.80
31455;DHT22;18084;53.028;8.834;2024-02-26T03:24:47;1.40;88.70
31455;DHT22;18084;53.028;8.834;2024-02-26T03:27:13;1.40;88.50
31455;DHT22;18084;53.028;8.834;2024-02-26T03:29:38;1.40;88.80
31455;DHT22;18084;53.028;8.834;2024-02-26T03:32:05;1.50;89.00
31455;DHT22;18084;53.028;8.834;2024-02-26T03:34:32;1.50;88.90
31455;DHT22;18084;53.028;8.834;2024-02-26T03:37:00;1.50;88.80
31455;DHT22;18084;53.028;8.834;2024-02-26T03:39:25;1.50;88.80
31455;DHT22;18084;53.028;8.834;2024-02-26T03:41:51;1.50;88.70
31455;DHT22;18084;53.028;8.834;2024-02-26T03:44:16;1.50;88.80
31455;DHT22;18084;53.028;8.834;2024-02-26T03:46:42;1.60;88.90
31455;DHT22;18084;53.028;8.834;2024-02-26T03:49:08;1.60;88.90
31455;DHT22;18084;53.028;8.834;2024-02-26T03:51:34;1.70;89.10
31455;DHT22;18084;53.028;8.834;2024-02-26T03:54:02;1.70;88.80
31455;DHT22;18084;53.028;8.834;2024-02-26T03:56:28;1.70;88.80
31455;DHT22;18084;53.028;8.834;2024-02-26T03:59:00;1.60;88.80
31455;DHT22;18084;53.028;8.834;2024-02-26T04:01:27;1.70;88.90
31455;DHT22;18084;53.028;8.834;2024-02-26T04:03:53;1.70;88.80
31455;DHT22;18084;53.028;8.834;2024-02-26T04:06:19;1.70;88.80
31455;DHT22;18084;53.028;8.834;2024-02-26T04:08:46;1.60;88.70
31455;DHT22;18084;53.028;8.834;2024-02-26T04:11:12;1.70;88.80
31455;DHT22;18084;53.028;8.834;2024-02-26T04:13:37;1.70;88.90
31455;DHT22;18084;53.028;8.834;2024-02-26T04:16:04;1.80;88.80
31455;DHT22;18084;53.028;8.834;2024-02-26T04:18:31;1.70;88.80
31455;DHT22;18084;53.028;8.834;2024-02-26T04:20:56;1.70;88.70
31455;DHT22;18084;53.028;8.834;2024-02-26T04:23:22;1.70;88.50
31455;DHT22;18084;53.028;8.834;2024-02-26T04:25:47;1.70;88.70
31455;DHT22;18084;53.028;8.834;2024-02-26T04:28:13;1.60;88.70
31455;DHT22;18084;53.028;8.834;2024-02-26T04:30:40;1.70;88.80
31455;DHT22;18084;53.028;8.834;2024-02-26T04:33:06;1.70;88.80
31455;DHT22;18084;53.028;8.834;2024-02-26T04:35:32;1.70;88.90
31455;DHT22;18084;53.028;8.834;2024-02-26T04:37:57;1.70;88.80
31455;DHT22;18084;53.028;8.834;2024-02-26T04:40:23;1.70;88.80
31455;DHT22;18084;53.028;8.834;2024-02-26T04:42:50;1.70;88.80
31455;DHT22;18084;53.028;8.834;2024-02-26T04:45:16;1.70;88.80
31455;DHT22;18084;53.028;8.834;2024-02-26T04:47:41;1.80;88.90
31455;DHT22;18084;53.028;8.834;2024-02-26T04:50:07;1.70;88.90
31455;DHT22;18084;53.028;8.834;2024-02-26T04:52:33;1.80;88.90
31455;DHT22;18084;53.028;8.834;2024-02-26T04:54:59;1.80;88.80
31455;DHT22;18084;53.028;8.834;2024-02-26T04:57:26;1.80;88.80
31455;DHT22;18084;53.028;8.834;2024-02-26T04:59:52;1.80;88.80
31455;DHT22;18084;53.028;8.834;2024-02-26T05:02:18;1.80;88.70
31455;DHT22;18084;53.028;8.834;2024-02-26T05:04:43;1.80;88.70
31455;DHT22;18084;53.028;8.834;2024-02-26T05:07:09;1.80;88.70
31455;DHT22;18084;53.028;8.834;2024-02-26T05:09:37;1.80;88.70
31455;DHT22;18084;53.028;8.834;2024-02-26T05:12:03;1.80;88.60
31455;DHT22;18084;53.028;8.834;2024-02-26T05:14:29;1.80;88.70
31455;DHT22;18084;53.028;8.834;2024-02-26T05:16:54;1.90;88.70
31455;DHT22;18084;53.028;8.834;2024-02-26T05:19:21;1.90;88.80
31455;DHT22;18084;53.028;8.834;2024-02-26T05:21:46;2.00;88.80
31455;DHT22;18084;53.028;8.834;2024-02-26T05:24:14;2.00;88.70
31455;DHT22;18084;53.028;8.834;2024-02-26T05:26:41;2.00;88.70
31455;DHT22;18084;53.028;8.834;2024-02-26T05:29:06;2.10;88.60
31455;DHT22;18084;53.028;8.834;2024-02-26T05:31:32;2.10;88.60
31455;DHT22;18084;53.028;8.834;2024-02-26T05:33:57;2.10;88.50
31455;DHT22;18084;53.028;8.834;2024-02-26T05:36:23;2.10;88.50
31455;DHT22;18084;53.028;8.834;2024-02-26T05:38:49;2.10;88.40
31455;DHT22;18084;53.028;8.834;2024-02-26T05:41:16;2.10;88.50
31455;DHT22;18084;53.028;8.834;2024-02-26T05:43:42;2.10;88.40
31455;DHT22;18084;53.028;8.834;2024-02-26T05:46:08;2.10;88.40
31455;DHT22;18084;53.028;8.834;2024-02-26T05:48:33;2.10;88.50
31455;DHT22;18084;53.028;8.834;2024-02-26T05:50:59;2.10;88.50
31455;DHT22;18084;53.028;8.834;2024-02-26T05:53:24;2.20;88.40
31455;DHT22;18084;53.028;8.834;2024-02-26T05:55:50;2.10;88.50
31455;DHT22;18084;53.028;8.834;2024-02-26T05:58:16;2.20;88.40
31455;DHT22;18084;53.028;8.834;2024-02-26T06:00:41;2.20;88.40
31455;DHT22;18084;53.028;8.834;2024-02-26T06:03:08;2.20;88.40
31455;DHT22;18084;53.028;8.834;2024-02-26T06:05:34;2.20;88.40
31455;DHT22;18084;53.028;8.834;2024-02-26T06:07:59;2.10;88.30
31455;DHT22;18084;53.028;8.834;2024-02-26T06:10:28;2.20;88.40
31455;DHT22;18084;53.028;8.834;2024-02-26T06:12:53;2.10;88.40
31455;DHT22;18084;53.028;8.834;2024-02-26T06:15:19;2.10;88.40
31455;DHT22;18084;53.028;8.834;2024-02-26T06:17:44;2.10;88.30
31455;DHT22;18084;53.028;8.834;2024-02-26T06:20:10;2.10;88.40
31455;DHT22;18084;53.028;8.834;2024-02-26T06:22:40;2.10;88.40
31455;DHT22;18084;53.028;8.834;2024-02-26T06:25:05;2.10;88.40
31455;DHT22;18084;53.028;8.834;2024-02-26T06:27:31;2.10;88.40
31455;DHT22;18084;53.028;8.834;2024-02-26T06:29:56;2.10;88.40
31455;DHT22;18084;53.028;8.834;2024-02-26T06:32:22;2.10;88.40
31455;DHT22;18084;53.028;8.834;2024-02-26T06:34:48;2.00;88.50
31455;DHT22;18084;53.028;8.834;2024-02-26T06:37:14;2.10;88.50
31455;DHT22;18084;53.028;8.834;2024-02-26T06:39:39;2.10;88.50
31455;DHT22;18084;53.028;8.834;2024-02-26T06:42:06;2.20;88.60
31455;DHT22;18084;53.028;8.834;2024-02-26T06:44:32;2.20;88.60
31455;DHT22;18084;53.028;8.834;2024-02-26T06:46:58;2.20;88.60
31455;DHT22;18084;53.028;8.834;2024-02-26T06:49:25;2.20;88.60
31455;DHT22;18084;53.028;8.834;2024-02-26T06:51:52;2.20;88.60
31455;DHT22;18084;53.028;8.834;2024-02-26T06:54:17;2.20;88.60
31455;DHT22;18084;53.028;8.834;2024-02-26T06:56:46;2.20;88.70
31455;DHT22;18084;53.028;8.834;2024-02-26T06:59:12;2.20;88.80
31455;DHT22;18084;53.028;8.834;2024-02-26T07:01:41;2.30;88.70
31455;DHT22;18084;53.028;8.834;2024-02-26T07:04:06;2.30;88.70
31455;DHT22;18084;53.028;8.834;2024-02-26T07:06:32;2.30;88.80
31455;DHT22;18084;53.028;8.834;2024-02-26T07:08:57;2.30;88.70
31455;DHT22;18084;53.028;8.834;2024-02-26T07:11:23;2.30;88.80
31455;DHT22;18084;53.028;8.834;2024-02-26T07:13:48;2.40;88.70
31455;DHT22;18084;53.028;8.834;2024-02-26T07:16:15;2.40;88.70
31455;DHT22;18084;53.028;8.834;2024-02-26T07:18:40;2.40;88.70
31455;DHT22;18084;53.028;8.834;2024-02-26T07:21:06;2.40;88.70
31455;DHT22;18084;53.028;8.834;2024-02-26T07:23:32;2.40;88.70
31455;DHT22;18084;53.028;8.834;2024-02-26T07:26:00;2.40;88.70
31455;DHT22;18084;53.028;8.834;2024-02-26T07:28:25;2.50;88.70
31455;DHT22;18084;53.028;8.834;2024-02-26T07:30:51;2.50;88.70
31455;DHT22;18084;53.028;8.834;2024-02-26T07:33:16;2.50;88.70
31455;DHT22;18084;53.028;8.834;2024-02-26T07:35:42;2.60;88.70
31455;DHT22;18084;53.028;8.834;2024-02-26T07:38:07;2.60;88.70
31455;DHT22;18084;53.028;8.834;2024-02-26T07:40:33;2.60;88.60
31455;DHT22;18084;53.028;8.834;2024-02-26T07:43:00;2.60;88.60
31455;DHT22;18084;53.028;8.834;2024-02-26T07:45:25;2.70;88.60
31455;DHT22;18084;53.028;8.834;2024-02-26T07:47:51;2.70;88.60
31455;DHT22;18084;53.028;8.834;2024-02-26T07:50:17;2.70;88.50
31455;DHT22;18084;53.028;8.834;2024-02-26T07:52:43;2.80;88.50
31455;DHT22;18084;53.028;8.834;2024-02-26T07:55:10;2.80;88.40
31455;DHT22;18084;53.028;8.834;2024-02-26T07:57:36;2.90;88.30
31455;DHT22;18084;53.028;8.834;2024-02-26T08:00:02;2.90;88.40
31455;DHT22;18084;53.028;8.834;2024-02-26T08:02:28;2.90;88.40
31455;DHT22;18084;53.028;8.834;2024-02-26T08:04:54;2.90;88.30
31455;DHT22;18084;53.028;8.834;2024-02-26T08:07:20;2.90;88.30
31455;DHT22;18084;53.028;8.834;2024-02-26T08:09:46;3.00;88.30
31455;DHT22;18084;53.028;8.834;2024-02-26T08:12:12;3.00;88.10
31455;DHT22;18084;53.028;8.834;2024-02-26T08:14:37;3.00;88.10
31455;DHT22;18084;53.028;8.834;2024-02-26T08:17:03;3.00;88.00
31455;DHT22;18084;53.028;8.834;2024-02-26T08:19:28;3.00;88.00
31455;DHT22;18084;53.028;8.834;2024-02-26T08:21:54;3.10;88.10
31455;DHT22;18084;53.028;8.834;2024-02-26T08:24:20;3.10;88.00
31455;DHT22;18084;53.028;8.834;2024-02-26T08:26:45;3.20;87.90
31455;DHT22;18084;53.028;8.834;2024-02-26T08:29:11;3.20;87.90
31455;DHT22;18084;53.028;8.834;2024-02-26T08:31:37;3.20;87.90
31455;DHT22;18084;53.028;8.834;2024-02-26T08:34:03;3.30;87.80
31455;DHT22;18084;53.028;8.834;2024-02-26T08:36:30;3.40;87.80
31455;DHT22;18084;53.028;8.834;2024-02-26T08:38:55;3.40;87.70
31455;DHT22;18084;53.028;8.834;2024-02-26T08:41:21;3.50;87.60
31455;DHT22;18084;53.028;8.834;2024-02-26T08:43:46;3.50;87.30
31455;DHT22;18084;53.028;8.834;2024-02-26T08:46:12;3.60;87.40
31455;DHT22;18084;53.028;8.834;2024-02-26T08:48:39;3.70;87.30
31455;DHT22;18084;53.028;8.834;2024-02-26T08:51:08;3.80;86.90
31455;DHT22;18084;53.028;8.834;2024-02-26T08:53:35;3.90;86.70
31455;DHT22;18084;53.028;8.834;2024-02-26T08:56:00;3.90;86.60
31455;DHT22;18084;53.028;8.834;2024-02-26T08:58:28;4.00;86.40
31455;DHT22;18084;53.028;8.834;2024-02-26T09:00:54;4.10;86.50
31455;DHT22;18084;53.028;8.834;2024-02-26T09:03:19;4.10;86.00
31455;DHT22;18084;53.028;8.834;2024-02-26T09:05:46;4.20;86.10
31455;DHT22;18084;53.028;8.834;2024-02-26T09:08:12;4.20;86.00
31455;DHT22;18084;53.028;8.834;2024-02-26T09:10:38;4.30;85.90
31455;DHT22;18084;53.028;8.834;2024-02-26T09:13:04;4.50;85.60
31455;DHT22;18084;53.028;8.834;2024-02-26T09:15:30;4.40;85.40
31455;DHT22;18084;53.028;8.834;2024-02-26T09:17:55;4.50;85.10
31455;DHT22;18084;53.028;8.834;2024-02-26T09:20:21;4.50;85.20
31455;DHT22;18084;53.028;8.834;2024-02-26T09:22:48;4.70;84.90
31455;DHT22;18084;53.028;8.834;2024-02-26T09:25:14;4.70;84.70
31455;DHT22;18084;53.028;8.834;2024-02-26T09:27:41;4.70;84.60
31455;DHT22;18084;53.028;8.834;2024-02-26T09:30:11;4.90;84.50
31455;DHT22;18084;53.028;8.834;2024-02-26T09:32:37;5.00;84.00
31455;DHT22;18084;53.028;8.834;2024-02-26T09:35:04;5.20;83.60
31455;DHT22;18084;53.028;8.834;2024-02-26T09:37:29;5.40;83.30
31455;DHT22;18084;53.028;8.834;2024-02-26T09:39:55;5.50;83.00
31455;DHT22;18084;53.028;8.834;2024-02-26T09:42:22;5.70;82.50
31455;DHT22;18084;53.028;8.834;2024-02-26T09:44:51;5.80;81.80
31455;DHT22;18084;53.028;8.834;2024-02-26T09:47:19;5.90;82.10
31455;DHT22;18084;53.028;8.834;2024-02-26T09:49:46;6.00;81.70
31455;DHT22;18084;53.028;8.834;2024-02-26T09:52:15;5.90;81.20
31455;DHT22;18084;53.028;8.834;2024-02-26T09:54:41;6.20;81.60
31455;DHT22;18084;53.028;8.834;2024-02-26T09:57:09;6.30;80.80
31455;DHT22;18084;53.028;8.834;2024-02-26T09:59:41;6.40;80.70
31455;DHT22;18084;53.028;8.834;2024-02-26T10:02:14;6.40;80.30
31455;DHT22;18084;53.028;8.834;2024-02-26T10:04:41;6.60;81.00
31455;DHT22;18084;53.028;8.834;2024-02-26T10:07:12;7.10;78.40
31455;DHT22;18084;53.028;8.834;2024-02-26T10:09:38;7.50;77.60
31455;DHT22;18084;53.028;8.834;2024-02-26T10:12:04;7.80;76.10
31455;DHT22;18084;53.028;8.834;2024-02-26T10:14:30;8.00;76.70
31455;DHT22;18084;53.028;8.834;2024-02-26T10:16:56;8.10;74.90
31455;DHT22;18084;53.028;8.834;2024-02-26T10:19:30;8.20;74.50
31455;DHT22;18084;53.028;8.834;2024-02-26T10:22:00;8.20;73.80
31455;DHT22;18084;53.028;8.834;2024-02-26T10:24:27;8.10;75.10
31455;DHT22;18084;53.028;8.834;2024-02-26T10:26:54;8.40;74.10
31455;DHT22;18084;53.028;8.834;2024-02-26T10:29:21;8.50;73.40
31455;DHT22;18084;53.028;8.834;2024-02-26T10:31:46;8.40;73.10
31455;DHT22;18084;53.028;8.834;2024-02-26T10:34:19;8.10;73.20
31455;DHT22;18084;53.028;8.834;2024-02-26T10:36:46;7.90;73.30
31455;DHT22;18084;53.028;8.834;2024-02-26T10:39:12;7.70;74.00
31455;DHT22;18084;53.028;8.834;2024-02-26T10:41:40;7.60;74.50
31455;DHT22;18084;53.028;8.834;2024-02-26T10:44:06;7.70;73.60
31455;DHT22;18084;53.028;8.834;2024-02-26T10:46:34;7.50;74.50
31455;DHT22;18084;53.028;8.834;2024-02-26T10:49:00;7.60;74.40
31455;DHT22;18084;53.028;8.834;2024-02-26T10:51:27;7.60;74.20
31455;DHT22;18084;53.028;8.834;2024-02-26T10:53:56;7.70;74.10
31455;DHT22;18084;53.028;8.834;2024-02-26T10:56:26;7.90;73.40
31455;DHT22;18084;53.028;8.834;2024-02-26T10:58:54;7.90;73.80
31455;DHT22;18084;53.028;8.834;2024-02-26T11:01:21;8.00;72.60
31455;DHT22;18084;53.028;8.834;2024-02-26T11:03:49;7.90;72.90
31455;DHT22;18084;53.028;8.834;2024-02-26T11:06:19;8.10;73.00
31455;DHT22;18084;53.028;8.834;2024-02-26T11:08:50;8.10;73.70
31455;DHT22;18084;53.028;8.834;2024-02-26T11:11:19;8.10;72.70
31455;DHT22;18084;53.028;8.834;2024-02-26T11:13:47;8.10;72.10
31455;DHT22;18084;53.028;8.834;2024-02-26T11:16:18;8.10;72.40
31455;DHT22;18084;53.028;8.834;2024-02-26T11:18:43;8.10;73.60
31455;DHT22;18084;53.028;8.834;2024-02-26T11:21:15;8.20;72.60
31455;DHT22;18084;53.028;8.834;2024-02-26T11:23:41;8.30;72.20
31455;DHT22;18084;53.028;8.834;2024-02-26T11:26:08;8.30;72.50
31455;DHT22;18084;53.028;8.834;2024-02-26T11:28:35;8.30;72.60
31455;DHT22;18084;53.028;8.834;2024-02-26T11:31:02;8.50;72.40
31455;DHT22;18084;53.028;8.834;2024-02-26T11:33:29;8.30;72.70
31455;DHT22;18084;53.028;8.834;2024-02-26T11:35:55;8.40;72.90
31455;DHT22;18084;53.028;8.834;2024-02-26T11:38:24;8.50;72.80
31455;DHT22;18084;53.028;8.834;2024-02-26T11:40:50;8.50;72.10
31455;DHT22;18084;53.028;8.834;2024-02-26T11:43:16;8.40;72.90
31455;DHT22;18084;53.028;8.834;2024-02-26T11:48:22;8.50;71.90
31455;DHT22;18084;53.028;8.834;2024-02-26T11:50:50;8.50;72.50
31455;DHT22;18084;53.028;8.834;2024-02-26T11:55:47;8.40;73.40
31455;DHT22;18084;53.028;8.834;2024-02-26T11:58:14;8.40;72.50
31455;DHT22;18084;53.028;8.834;2024-02-26T12:00:40;8.50;72.50
31455;DHT22;18084;53.028;8.834;2024-02-26T12:03:07;8.50;72.90
31455;DHT22;18084;53.028;8.834;2024-02-26T12:05:34;8.40;72.90
31455;DHT22;18084;53.028;8.834;2024-02-26T12:08:05;8.50;72.60
31455;DHT22;18084;53.028;8.834;2024-02-26T12:10:33;8.50;72.80
31455;DHT22;18084;53.028;8.834;2024-02-26T12:13:06;8.70;72.70
31455;DHT22;18084;53.028;8.834;2024-02-26T12:15:42;8.90;71.40
31455;DHT22;18084;53.028;8.834;2024-02-26T12:18:10;9.00;71.60
31455;DHT22;18084;53.028;8.834;2024-02-26T12:20:37;9.00;72.70
31455;DHT22;18084;53.028;8.834;2024-02-26T12:23:03;9.00;72.10
31455;DHT22;18084;53.028;8.834;2024-02-26T12:25:32;9.10;71.40
31455;DHT22;18084;53.028;8.834;2024-02-26T12:27:59;9.00;71.50
31455;DHT22;18084;53.028;8.834;2024-02-26T12:30:25;9.20;71.30
31455;DHT22;18084;53.028;8.834;2024-02-26T12:32:52;9.00;72.50
31455;DHT22;18084;53.028;8.834;2024-02-26T12:35:22;9.10;71.60
31455;DHT22;18084;53.028;8.834;2024-02-26T12:37:47;9.10;72.30
31455;DHT22;18084;53.028;8.834;2024-02-26T12:40:13;9.20;71.90
31455;DHT22;18084;53.028;8.834;2024-02-26T12:42:40;9.20;71.90
31455;DHT22;18084;53.028;8.834;2024-02-26T12:45:10;9.40;71.80
31455;DHT22;18084;53.028;8.834;2024-02-26T12:47:43;9.50;71.00
31455;DHT22;18084;53.028;8.834;2024-02-26T12:50:10;9.50;70.70
31455;DHT22;18084;53.028;8.834;2024-02-26T12:52:38;9.40;72.10
31455;DHT22;18084;53.028;8.834;2024-02-26T12:55:05;9.50;70.60
31455;DHT22;18084;53.028;8.834;2024-02-26T12:57:37;9.40;70.20
31455;DHT22;18084;53.028;8.834;2024-02-26T13:00:07;9.60;71.40
31455;DHT22;18084;53.028;8.834;2024-02-26T13:02:35;9.60;70.90
31455;DHT22;18084;53.028;8.834;2024-02-26T13:05:02;9.70;71.00
31455;DHT22;18084;53.028;8.834;2024-02-26T13:07:28;9.70;70.40
31455;DHT22;18084;53.028;8.834;2024-02-26T13:09:54;9.40;70.90
31455;DHT22;18084;53.028;8.834;2024-02-26T13:12:20;9.20;71.50
31455;DHT22;18084;53.028;8.834;2024-02-26T13:14:46;9.10;71.90
31455;DHT22;18084;53.028;8.834;2024-02-26T13:17:12;9.00;72.50
31455;DHT22;18084;53.028;8.834;2024-02-26T13:19:37;8.90;73.00
31455;DHT22;18084;53.028;8.834;2024-02-26T13:22:13;8.80;72.90
31455;DHT22;18084;53.028;8.834;2024-02-26T13:24:39;8.70;73.70
31455;DHT22;18084;53.028;8.834;2024-02-26T13:27:05;8.90;73.50
31455;DHT22;18084;53.028;8.834;2024-02-26T13:29:31;8.70;73.60
31455;DHT22;18084;53.028;8.834;2024-02-26T13:32:00;8.70;73.20
31455;DHT22;18084;53.028;8.834;2024-02-26T13:34:27;8.70;73.20
31455;DHT22;18084;53.028;8.834;2024-02-26T13:36:54;8.60;73.60
31455;DHT22;18084;53.028;8.834;2024-02-26T13:39:28;8.50;73.70
31455;DHT22;18084;53.028;8.834;2024-02-26T13:41:54;8.50;73.60
31455;DHT22;18084;53.028;8.834;2024-02-26T13:44:20;8.40;74.20
31455;DHT22;18084;53.028;8.834;2024-02-26T13:46:47;8.30;73.90
31455;DHT22;18084;53.028;8.834;2024-02-26T13:49:17;8.40;74.00
31455;DHT22;18084;53.028;8.834;2024-02-26T13:51:42;8.30;74.30
31455;DHT22;18084;53.028;8.834;2024-02-26T13:54:08;8.30;74.30
31455;DHT22;18084;53.028;8.834;2024-02-26T13:56:35;8.30;74.10
31455;DHT22;18084;53.028;8.834;2024-02-26T13:59:01;8.40;74.60
31455;DHT22;18084;53.028;8.834;2024-02-26T14:01:27;8.40;74.10
31455;DHT22;18084;53.028;8.834;2024-02-26T14:03:53;8.40;74.00
31455;DHT22;18084;53.028;8.834;2024-02-26T14:06:23;8.30;73.90
31455;DHT22;18084;53.028;8.834;2024-02-26T14:08:49;8.20;74.40
31455;DHT22;18084;53.028;8.834;2024-02-26T14:11:14;8.20;74.50
31455;DHT22;18084;53.028;8.834;2024-02-26T14:13:39;8.30;74.30
31455;DHT22;18084;53.028;8.834;2024-02-26T14:16:05;8.30;74.40
31455;DHT22;18084;53.028;8.834;2024-02-26T14:18:31;8.30;74.50
31455;DHT22;18084;53.028;8.834;2024-02-26T14:20:56;8.30;74.80
31455;DHT22;18084;53.028;8.834;2024-02-26T14:23:22;8.20;74.70
31455;DHT22;18084;53.028;8.834;2024-02-26T14:25:47;8.20;74.90
31455;DHT22;18084;53.028;8.834;2024-02-26T14:28:13;8.20;74.90
31455;DHT22;18084;53.028;8.834;2024-02-26T14:30:38;8.30;75.00
31455;DHT22;18084;53.028;8.834;2024-02-26T14:33:04;8.20;75.00
31455;DHT22;18084;53.028;8.834;2024-02-26T14:35:29;8.10;75.20
31455;DHT22;18084;53.028;8.834;2024-02-26T14:37:55;8.00;75.10
31455;DHT22;18084;53.028;8.834;2024-02-26T14:40:26;8.10;75.30
31455;DHT22;18084;53.028;8.834;2024-02-26T14:42:51;7.90;75.40
31455;DHT22;18084;53.028;8.834;2024-02-26T14:45:17;7.90;75.80
31455;DHT22;18084;53.028;8.834;2024-02-26T14:47:42;7.90;76.20
31455;DHT22;18084;53.028;8.834;2024-02-26T14:50:08;7.80;75.90
31455;DHT22;18084;53.028;8.834;2024-02-26T14:52:33;7.80;76.40
31455;DHT22;18084;53.028;8.834;2024-02-26T14:54:59;7.80;76.70
31455;DHT22;18084;53.028;8.834;2024-02-26T14:57:24;7.60;76.40
31455;DHT22;18084;53.028;8.834;2024-02-26T14:59:50;7.60;76.60
31455;DHT22;18084;53.028;8.834;2024-02-26T15:02:16;7.60;77.10
31455;DHT22;18084;53.028;8.834;2024-02-26T15:04:43;7.60;77.10
31455;DHT22;18084;53.028;8.834;2024-02-26T15:07:10;7.50;77.60
31455;DHT22;18084;53.028;8.834;2024-02-26T15:09:37;7.50;77.40
31455;DHT22;18084;53.028;8.834;2024-02-26T15:12:03;7.50;77.40
31455;DHT22;18084;53.028;8.834;2024-02-26T15:14:32;7.40;77.40
31455;DHT22;18084;53.028;8.834;2024-02-26T15:16:57;7.40;77.70
31455;DHT22;18084;53.028;8.834;2024-02-26T15:19:23;7.30;78.00
31455;DHT22;18084;53.028;8.834;2024-02-26T15:21:48;7.30;77.80
31455;DHT22;18084;53.028;8.834;2024-02-26T15:24:14;7.20;78.00
31455;DHT22;18084;53.028;8.834;2024-02-26T15:26:44;7.20;78.10
31455;DHT22;18084;53.028;8.834;2024-02-26T15:29:10;7.20;78.00
31455;DHT22;18084;53.028;8.834;2024-02-26T15:31:36;7.10;77.90
31455;DHT22;18084;53.028;8.834;2024-02-26T15:34:02;7.10;77.80
31455;DHT22;18084;53.028;8.834;2024-02-26T15:36:28;7.10;78.00
31455;DHT22;18084;53.028;8.834;2024-02-26T15:38:55;7.10;78.00
31455;DHT22;18084;53.028;8.834;2024-02-26T15:41:22;7.00;77.90
31455;DHT22;18084;53.028;8.834;2024-02-26T15:43:48;7.00;78.10